Time;durP1;ratioP1;P1;durP2;ratioP2;P2;SDS_P1;SDS_P2;PMS_P1;PMS_P2;Temp;Humidity;BMP_temperature;BMP_pressure;BME280_temperature;BME280_humidity;BME280_pressure;Samples;Min_cycle;Max_cycle;Signal;HPM_P1;HPM_P2
2022/10/10 00:00:14;;;;;;;10.93;7.30;;;21.10;49.80;;;;;;5137823;27;20428;-80
2022/10/10 00:02:42;;;;;;;13.90;7.80;;;21.10;49.70;;;;;;5143235;27;20459;-80
2022/10/10 00:05:10;;;;;;;13.50;7.40;;;21.00;49.80;;;;;;5138424;27;20457;-80
2022/10/10 00:07:38;;;;;;;12.50;7.30;;;21.00;49.80;;;;;;5145310;27;20434;-80
2022/10/10 00:10:07;;;;;;;15.03;8.27;;;21.00;49.80;;;;;;5140745;27;20457;-79
2022/10/10 00:12:36;;;;;;;11.27;7.17;;;21.00;49.80;;;;;;5144222;27;20463;-80
2022/10/10 00:15:04;;;;;;;10.13;7.00;;;20.90;49.80;;;;;;5139324;27;20447;-80
2022/10/10 00:17:32;;;;;;;14.00;7.43;;;20.90;49.60;;;;;;5140330;27;20786;-80
2022/10/10 00:20:00;;;;;;;11.40;7.17;;;20.90;49.70;;;;;;5139620;27;20439;-80
2022/10/10 00:22:28;;;;;;;11.93;9.00;;;20.90;49.80;;;;;;5142788;27;20443;-80
2022/10/10 00:24:56;;;;;;;13.63;9.53;;;20.90;49.80;;;;;;5143456;27;20431;-80
2022/10/10 00:27:24;;;;;;;12.40;8.57;;;20.80;49.90;;;;;;5143660;27;20417;-81
2022/10/10 00:29:53;;;;;;;13.30;8.03;;;20.80;49.90;;;;;;5139554;27;20489;-81
2022/10/10 00:32:21;;;;;;;10.27;7.37;;;20.80;49.90;;;;;;5141541;27;20451;-80
2022/10/10 00:34:49;;;;;;;9.80;7.00;;;20.80;49.80;;;;;;5143676;27;20431;-80
2022/10/10 00:37:17;;;;;;;9.93;6.53;;;20.80;49.80;;;;;;5141830;27;20405;-80
2022/10/10 00:39:45;;;;;;;11.63;6.40;;;20.80;49.80;;;;;;5144260;27;20446;-80
2022/10/10 00:42:13;;;;;;;9.70;7.07;;;20.80;49.80;;;;;;5141645;27;20471;-80
2022/10/10 00:44:41;;;;;;;8.80;6.80;;;20.80;49.80;;;;;;5140638;27;20446;-81
2022/10/10 00:47:11;;;;;;;12.97;6.97;;;20.70;49.80;;;;;;5137235;27;20455;-81
2022/10/10 00:49:40;;;;;;;9.90;6.50;;;20.70;49.90;;;;;;5140853;27;20437;-80
2022/10/10 00:52:09;;;;;;;6.70;5.50;;;20.70;50.00;;;;;;5143158;27;20522;-80
2022/10/10 00:54:37;;;;;;;12.50;6.27;;;20.70;49.90;;;;;;5143861;27;20436;-80
2022/10/10 00:57:07;;;;;;;7.80;5.90;;;20.60;50.60;;;;;;5145898;27;20451;-81
2022/10/10 00:59:37;;;;;;;7.67;5.33;;;20.60;49.90;;;;;;5145855;27;20545;-82
2022/10/10 01:02:05;;;;;;;6.53;5.80;;;20.60;50.00;;;;;;5146823;27;20466;-80
2022/10/10 01:04:37;;;;;;;7.87;5.73;;;20.60;50.10;;;;;;5148430;27;20439;-80
2022/10/10 01:07:14;;;;;;;6.93;5.40;;;20.60;50.20;;;;;;5141430;27;20439;-80
2022/10/10 01:09:43;;;;;;;7.43;5.20;;;20.60;50.20;;;;;;5137973;28;20687;-80
2022/10/10 01:12:17;;;;;;;6.53;4.93;;;20.60;50.10;;;;;;5141795;28;20446;-83
2022/10/10 01:14:47;;;;;;;6.73;5.13;;;20.50;49.90;;;;;;5145539;28;20431;-82
2022/10/10 01:17:19;;;;;;;6.50;4.80;;;20.50;50.20;;;;;;5144910;28;20400;-82
2022/10/10 01:20:19;;;;;;;8.47;4.40;;;20.50;50.10;;;;;;5146418;28;20417;-80
2022/10/10 01:22:55;;;;;;;5.07;4.33;;;20.50;50.00;;;;;;5141187;28;20422;-80
2022/10/10 01:25:26;;;;;;;5.40;4.70;;;20.50;50.10;;;;;;5141581;28;20446;-80
2022/10/10 01:27:59;;;;;;;6.63;4.33;;;20.50;50.20;;;;;;5141276;28;20542;-80
2022/10/10 01:30:29;;;;;;;5.10;4.60;;;20.50;50.20;;;;;;5142933;27;20443;-81
2022/10/10 01:33:01;;;;;;;5.30;4.47;;;20.50;50.20;;;;;;5149686;27;20465;-80
2022/10/10 01:35:33;;;;;;;5.03;4.53;;;20.40;50.10;;;;;;5145125;27;20760;-80
2022/10/10 01:38:18;;;;;;;4.43;4.03;;;20.40;50.20;;;;;;5140141;27;20924;-80
2022/10/10 01:40:48;;;;;;;5.30;4.10;;;20.40;50.20;;;;;;5153804;27;20440;-81
2022/10/10 01:43:17;;;;;;;4.33;3.87;;;20.40;50.40;;;;;;5155984;27;20484;-82
2022/10/10 01:45:47;;;;;;;4.27;3.83;;;20.40;50.20;;;;;;5156582;27;20445;-84
2022/10/10 01:48:15;;;;;;;4.60;3.80;;;20.40;50.20;;;;;;5157748;27;20443;-82
2022/10/10 01:51:02;;;;;;;5.67;3.90;;;20.40;50.30;;;;;;5157655;27;20435;-83
2022/10/10 01:53:34;;;;;;;4.00;3.60;;;20.30;50.20;;;;;;5151233;27;20538;-84
2022/10/10 01:56:05;;;;;;;4.90;3.30;;;20.30;50.30;;;;;;5157391;27;20447;-81
2022/10/10 01:58:48;;;;;;;4.43;4.03;;;20.30;50.40;;;;;;5150268;27;20427;-81
2022/10/10 02:01:19;;;;;;;4.30;3.60;;;20.30;50.20;;;;;;5149880;27;20447;-83
2022/10/10 02:03:50;;;;;;;3.90;3.50;;;20.30;50.40;;;;;;5153823;27;20443;-84
2022/10/10 02:06:20;;;;;;;3.80;3.50;;;20.30;50.50;;;;;;5149355;27;20449;-82
2022/10/10 02:08:50;;;;;;;4.37;3.60;;;20.30;50.50;;;;;;5155491;27;20464;-80
2022/10/10 02:11:18;;;;;;;4.80;3.30;;;20.20;50.40;;;;;;5157342;27;20497;-82
2022/10/10 02:13:47;;;;;;;3.50;3.20;;;20.30;50.40;;;;;;5149336;27;20452;-82
2022/10/10 02:16:18;;;;;;;4.80;3.60;;;20.20;50.30;;;;;;5153703;27;20443;-81
2022/10/10 02:18:46;;;;;;;3.47;3.17;;;20.20;50.40;;;;;;5156500;27;20426;-82
2022/10/10 02:21:13;;;;;;;4.70;3.10;;;20.20;50.30;;;;;;5155337;27;20534;-80
2022/10/10 02:23:42;;;;;;;4.40;3.40;;;20.30;50.40;;;;;;5156679;27;20419;-81
2022/10/10 02:26:10;;;;;;;3.80;3.40;;;20.20;50.10;;;;;;5156842;27;20427;-81
2022/10/10 02:28:39;;;;;;;4.33;3.60;;;20.20;50.40;;;;;;5155992;27;20488;-84
2022/10/10 02:31:08;;;;;;;3.50;3.20;;;20.20;50.30;;;;;;5150018;27;20466;-81
2022/10/10 02:33:41;;;;;;;3.40;3.10;;;20.10;50.50;;;;;;5156368;27;20438;-82
2022/10/10 02:36:09;;;;;;;3.37;3.13;;;20.10;50.50;;;;;;5151187;27;20451;-82
2022/10/10 02:38:37;;;;;;;3.80;3.27;;;20.10;50.30;;;;;;5154305;27;20421;-82
2022/10/10 02:41:05;;;;;;;3.17;2.90;;;20.10;50.50;;;;;;5156965;27;20441;-83
2022/10/10 02:43:33;;;;;;;4.80;3.03;;;20.10;50.60;;;;;;5154907;27;20458;-84
2022/10/10 02:46:02;;;;;;;4.20;3.30;;;20.10;50.60;;;;;;5154126;27;20450;-82
2022/10/10 02:48:29;;;;;;;3.60;3.00;;;20.10;50.30;;;;;;5151308;27;20446;-82
2022/10/10 02:50:59;;;;;;;3.77;2.80;;;20.10;50.40;;;;;;5152446;27;20445;-80
2022/10/10 02:53:27;;;;;;;3.67;3.03;;;20.00;50.40;;;;;;5143308;27;20448;-81
2022/10/10 02:55:56;;;;;;;3.20;3.00;;;20.00;50.50;;;;;;5139045;27;20458;-80
2022/10/10 02:58:24;;;;;;;4.80;3.47;;;20.00;50.50;;;;;;5147417;27;20443;-80
2022/10/10 03:00:52;;;;;;;3.30;2.90;;;20.00;50.60;;;;;;5146227;27;20458;-80
2022/10/10 03:03:20;;;;;;;3.03;2.80;;;20.00;50.40;;;;;;5145816;27;20439;-80
2022/10/10 03:05:49;;;;;;;3.00;2.80;;;20.00;50.50;;;;;;5140469;27;20447;-80
2022/10/10 03:08:18;;;;;;;3.03;2.77;;;20.00;50.60;;;;;;5144856;27;20429;-81
2022/10/10 03:10:54;;;;;;;4.20;2.60;;;19.90;50.20;;;;;;5146010;27;20439;-75
2022/10/10 03:13:22;;;;;;;2.97;2.77;;;19.90;50.30;;;;;;5146508;27;20439;-81
2022/10/10 03:15:50;;;;;;;3.63;2.57;;;19.90;50.60;;;;;;5139259;27;20450;-78
2022/10/10 03:18:18;;;;;;;2.90;2.70;;;19.90;50.40;;;;;;5146257;27;20439;-80
2022/10/10 03:20:46;;;;;;;4.17;3.20;;;19.90;50.50;;;;;;5145804;27;20459;-80
2022/10/10 03:23:15;;;;;;;3.53;2.73;;;19.90;50.40;;;;;;5147000;27;20439;-80
2022/10/10 03:25:44;;;;;;;4.03;2.77;;;19.90;50.40;;;;;;5135923;27;20452;-79
2022/10/10 03:28:12;;;;;;;4.83;2.70;;;19.80;50.40;;;;;;5146003;27;20431;-80
2022/10/10 03:30:40;;;;;;;3.57;3.27;;;19.80;50.60;;;;;;5134524;27;20451;-81
2022/10/10 03:33:08;;;;;;;4.03;2.53;;;19.80;50.30;;;;;;5144715;27;20446;-80
2022/10/10 03:35:36;;;;;;;3.00;2.70;;;19.80;50.40;;;;;;5143528;27;20471;-80
2022/10/10 03:38:05;;;;;;;3.00;2.77;;;19.80;50.60;;;;;;5143157;27;20450;-80
2022/10/10 03:40:33;;;;;;;2.87;2.67;;;19.80;50.50;;;;;;5143313;27;20435;-80
2022/10/10 03:43:02;;;;;;;3.17;2.50;;;19.80;50.50;;;;;;5143529;27;20443;-79
2022/10/10 03:45:30;;;;;;;2.97;2.77;;;19.80;50.10;;;;;;5143676;27;20924;-80
2022/10/10 03:47:58;;;;;;;3.00;2.10;;;19.80;50.60;;;;;;5144260;27;20413;-80
2022/10/10 03:50:26;;;;;;;2.60;2.40;;;19.80;50.60;;;;;;5142433;27;20447;-80
2022/10/10 03:52:54;;;;;;;2.67;2.47;;;19.70;50.40;;;;;;5145063;27;20447;-80
2022/10/10 03:55:22;;;;;;;2.87;2.67;;;19.70;50.60;;;;;;5135328;27;20527;-80
2022/10/10 03:57:50;;;;;;;2.63;2.43;;;19.70;50.40;;;;;;5142693;27;20432;-80
2022/10/10 04:00:19;;;;;;;2.83;2.63;;;19.70;50.50;;;;;;5143193;27;20427;-79
2022/10/10 04:02:47;;;;;;;4.20;2.40;;;19.70;50.40;;;;;;5142920;27;20459;-80
2022/10/10 04:05:16;;;;;;;2.80;2.60;;;19.70;50.60;;;;;;5143148;27;20941;-80
2022/10/10 04:07:43;;;;;;;2.50;2.30;;;19.70;50.50;;;;;;5144202;27;20418;-81
2022/10/10 04:10:11;;;;;;;3.03;2.73;;;19.60;50.40;;;;;;5149268;27;20422;-83
2022/10/10 04:12:39;;;;;;;2.90;2.50;;;19.60;50.50;;;;;;5146619;27;20469;-81
2022/10/10 04:15:08;;;;;;;2.57;2.37;;;19.60;50.60;;;;;;5148812;27;20444;-81
2022/10/10 04:17:38;;;;;;;3.03;2.10;;;19.60;50.60;;;;;;5148881;27;20427;-81
2022/10/10 04:20:06;;;;;;;2.73;2.53;;;19.60;50.60;;;;;;5149481;27;20451;-81
2022/10/10 04:22:34;;;;;;;3.40;2.10;;;19.60;50.40;;;;;;5142482;27;20480;-81
2022/10/10 04:25:02;;;;;;;3.13;2.13;;;19.60;50.40;;;;;;5140288;27;20442;-79
2022/10/10 04:27:30;;;;;;;2.27;2.10;;;19.60;50.50;;;;;;5137417;27;20450;-79
2022/10/10 04:29:58;;;;;;;2.20;2.10;;;19.60;50.60;;;;;;5142328;27;20451;-80
2022/10/10 04:32:26;;;;;;;2.30;2.10;;;19.60;50.50;;;;;;5143509;27;20458;-80
2022/10/10 04:34:56;;;;;;;2.60;2.50;;;19.60;50.50;;;;;;5143311;27;20466;-79
2022/10/10 04:37:24;;;;;;;2.00;1.90;;;19.60;50.60;;;;;;5137186;27;20458;-81
2022/10/10 04:39:51;;;;;;;2.37;2.27;;;19.50;50.60;;;;;;5145194;27;20437;-81
2022/10/10 04:42:20;;;;;;;4.30;2.13;;;19.50;50.60;;;;;;5145715;27;20466;-80
2022/10/10 04:44:48;;;;;;;2.33;2.17;;;19.50;50.70;;;;;;5141354;27;20447;-82
2022/10/10 04:47:16;;;;;;;2.07;1.90;;;19.50;50.60;;;;;;5144336;27;20451;-82
2022/10/10 04:49:44;;;;;;;2.33;2.13;;;19.50;50.80;;;;;;5145471;27;20437;-80
2022/10/10 04:52:14;;;;;;;2.10;1.97;;;19.50;50.80;;;;;;5148067;27;20478;-83
2022/10/10 04:54:41;;;;;;;4.27;2.57;;;19.50;50.50;;;;;;5147432;27;20462;-80
2022/10/10 04:57:09;;;;;;;2.20;2.00;;;19.50;50.70;;;;;;5145397;27;20431;-80
2022/10/10 04:59:37;;;;;;;2.10;2.00;;;19.50;50.80;;;;;;5142941;27;20433;-80
2022/10/10 05:02:05;;;;;;;3.53;2.30;;;19.50;50.60;;;;;;5146831;27;20443;-80
2022/10/10 05:04:33;;;;;;;2.23;2.03;;;19.50;50.60;;;;;;5147004;27;20512;-81
2022/10/10 05:07:01;;;;;;;2.10;2.00;;;19.40;50.30;;;;;;5147197;27;20435;-80
2022/10/10 05:09:32;;;;;;;3.03;1.90;;;19.40;50.60;;;;;;5146763;27;20443;-80
2022/10/10 05:12:00;;;;;;;2.37;2.10;;;19.40;50.90;;;;;;5140975;28;20467;-83
2022/10/10 05:14:28;;;;;;;2.33;2.13;;;19.40;50.60;;;;;;5146033;28;20435;-82
2022/10/10 05:16:56;;;;;;;2.43;2.13;;;19.40;50.70;;;;;;5144889;28;20443;-82
2022/10/10 05:19:24;;;;;;;1.93;1.83;;;19.40;50.80;;;;;;5145313;28;20446;-81
2022/10/10 05:21:52;;;;;;;2.10;2.00;;;19.30;50.70;;;;;;5144617;28;20455;-80
2022/10/10 05:24:20;;;;;;;2.20;2.10;;;19.40;51.00;;;;;;5143313;28;20450;-81
2022/10/10 05:26:49;;;;;;;1.93;1.83;;;19.30;50.80;;;;;;5143454;28;20438;-80
2022/10/10 05:29:17;;;;;;;2.37;2.10;;;19.40;50.90;;;;;;5144002;28;20427;-81
2022/10/10 05:31:45;;;;;;;2.07;1.60;;;19.30;50.80;;;;;;5146717;28;20454;-79
2022/10/10 05:34:13;;;;;;;3.67;2.17;;;19.30;50.90;;;;;;5145127;28;20443;-80
2022/10/10 05:36:42;;;;;;;2.00;1.90;;;19.40;50.90;;;;;;5146775;28;20462;-81
2022/10/10 05:39:10;;;;;;;1.57;1.47;;;19.30;50.70;;;;;;5142827;28;20447;-82
2022/10/10 05:41:38;;;;;;;1.90;1.80;;;19.30;50.90;;;;;;5143277;28;20461;-81
2022/10/10 05:44:08;;;;;;;1.93;1.73;;;19.30;51.00;;;;;;5146274;28;20431;-80
2022/10/10 05:46:36;;;;;;;2.00;1.80;;;19.30;51.00;;;;;;5145042;28;20442;-80
2022/10/10 05:49:04;;;;;;;2.80;2.03;;;19.30;50.90;;;;;;5144661;28;20454;-81
2022/10/10 05:51:32;;;;;;;1.97;1.87;;;19.30;51.00;;;;;;5144150;28;20459;-80
2022/10/10 05:54:00;;;;;;;2.30;2.10;;;19.30;51.00;;;;;;5137714;28;20521;-80
2022/10/10 05:56:28;;;;;;;2.03;1.83;;;19.30;51.20;;;;;;5144067;28;20458;-80
2022/10/10 05:58:56;;;;;;;2.13;2.03;;;19.30;51.10;;;;;;5145295;28;20450;-80
2022/10/10 06:01:26;;;;;;;1.70;1.60;;;19.30;51.00;;;;;;5142905;28;20466;-80
2022/10/10 06:03:54;;;;;;;2.30;1.77;;;19.20;51.00;;;;;;5144583;28;20443;-81
2022/10/10 06:06:23;;;;;;;2.20;2.00;;;19.30;51.30;;;;;;5143853;28;20451;-80
2022/10/10 06:08:51;;;;;;;1.97;1.87;;;19.30;51.20;;;;;;5146767;28;20426;-81
2022/10/10 06:11:21;;;;;;;2.23;2.03;;;19.30;51.00;;;;;;5150712;28;20533;-81
2022/10/10 06:13:52;;;;;;;2.40;2.10;;;19.30;51.20;;;;;;5148411;28;20442;-82
2022/10/10 06:16:21;;;;;;;1.70;1.60;;;19.30;51.20;;;;;;5139777;28;20468;-80
2022/10/10 06:18:50;;;;;;;1.97;1.87;;;19.30;51.10;;;;;;5145179;27;20452;-83
2022/10/10 06:21:18;;;;;;;1.50;1.40;;;19.30;51.20;;;;;;5149015;27;20529;-79
2022/10/10 06:23:46;;;;;;;2.30;2.10;;;19.30;51.20;;;;;;5138202;27;20475;-80
2022/10/10 06:26:14;;;;;;;1.90;1.80;;;19.30;51.10;;;;;;5146096;27;20435;-80
2022/10/10 06:28:42;;;;;;;1.63;1.53;;;19.30;51.10;;;;;;5145036;27;20425;-80
2022/10/10 06:31:11;;;;;;;2.10;2.00;;;19.30;51.00;;;;;;5145204;27;20469;-80
2022/10/10 06:33:42;;;;;;;2.13;1.97;;;19.20;51.00;;;;;;5145393;27;20466;-80
2022/10/10 06:36:12;;;;;;;2.60;2.13;;;19.20;51.20;;;;;;5144640;27;20471;-80
2022/10/10 06:38:41;;;;;;;1.93;1.83;;;19.30;51.30;;;;;;5146486;27;20451;-82
2022/10/10 06:41:09;;;;;;;1.70;1.60;;;19.20;51.20;;;;;;5141165;27;20470;-80
2022/10/10 06:43:37;;;;;;;1.87;1.77;;;19.30;51.40;;;;;;5144529;27;20443;-78
2022/10/10 06:46:06;;;;;;;5.23;2.10;;;19.30;51.20;;;;;;5141746;27;20458;-81
2022/10/10 06:48:34;;;;;;;2.47;1.50;;;19.30;51.30;;;;;;5148356;27;20450;-80
2022/10/10 06:51:03;;;;;;;2.20;2.00;;;19.20;51.30;;;;;;5147535;27;20458;-80
2022/10/10 06:53:33;;;;;;;1.93;1.83;;;19.30;51.30;;;;;;5146417;27;20435;-82
2022/10/10 06:56:01;;;;;;;3.50;2.03;;;19.30;51.20;;;;;;5141818;27;20482;-80
2022/10/10 06:58:29;;;;;;;2.00;1.90;;;19.30;51.30;;;;;;5147204;27;20439;-80
2022/10/10 07:00:58;;;;;;;1.90;1.80;;;19.30;51.20;;;;;;5128737;27;20447;-80
2022/10/10 07:03:26;;;;;;;2.10;2.00;;;19.30;51.20;;;;;;5148190;27;20532;-82
2022/10/10 07:05:55;;;;;;;1.70;1.60;;;19.30;51.20;;;;;;5147434;27;20442;-80
2022/10/10 07:08:23;;;;;;;1.93;1.83;;;19.30;51.20;;;;;;5140905;27;20444;-80
2022/10/10 07:10:52;;;;;;;2.20;2.00;;;19.30;51.10;;;;;;5126913;28;20438;-80
2022/10/10 07:13:21;;;;;;;1.80;1.67;;;19.30;51.10;;;;;;5142003;27;20541;-81
2022/10/10 07:15:48;;;;;;;3.27;1.90;;;19.30;51.00;;;;;;5146589;27;20436;-82
2022/10/10 07:18:17;;;;;;;1.83;1.67;;;19.30;51.00;;;;;;5146532;27;20439;-80
2022/10/10 07:20:45;;;;;;;1.83;1.73;;;19.30;51.10;;;;;;5145790;27;20435;-81
2022/10/10 07:23:13;;;;;;;1.90;1.80;;;19.30;51.20;;;;;;5147347;27;20470;-82
2022/10/10 07:25:42;;;;;;;2.30;1.80;;;19.30;51.10;;;;;;5145797;27;20435;-80
2022/10/10 07:28:11;;;;;;;2.87;1.67;;;19.30;51.10;;;;;;5146335;27;20506;-80
2022/10/10 07:30:40;;;;;;;2.50;1.83;;;19.30;51.10;;;;;;5145167;27;20447;-80
2022/10/10 07:33:07;;;;;;;3.27;1.90;;;19.40;51.20;;;;;;5133414;27;20455;-80
2022/10/10 07:35:35;;;;;;;2.17;2.07;;;19.40;51.20;;;;;;5139000;27;20422;-79
2022/10/10 07:38:03;;;;;;;2.80;2.60;;;19.40;51.10;;;;;;5131442;27;20479;-79
2022/10/10 07:40:31;;;;;;;1.90;1.80;;;19.40;51.20;;;;;;5133793;27;20443;-79
2022/10/10 07:42:59;;;;;;;1.90;1.80;;;19.40;51.20;;;;;;5130751;27;20439;-79
2022/10/10 07:45:29;;;;;;;2.03;1.80;;;19.40;51.20;;;;;;5133710;27;20465;-79
2022/10/10 07:47:56;;;;;;;2.10;2.00;;;19.40;51.10;;;;;;5132731;27;20433;-79
2022/10/10 07:50:25;;;;;;;1.93;1.73;;;19.50;51.20;;;;;;5133397;27;20439;-80
2022/10/10 07:52:52;;;;;;;2.20;2.00;;;19.50;51.10;;;;;;5133967;27;20441;-79
2022/10/10 07:55:21;;;;;;;4.13;1.93;;;19.60;51.20;;;;;;5131398;27;20458;-79
2022/10/10 07:57:50;;;;;;;3.80;2.03;;;19.70;51.10;;;;;;5140659;27;20471;-79
2022/10/10 08:00:20;;;;;;;2.83;1.87;;;19.70;51.10;;;;;;5140438;27;20413;-79
2022/10/10 08:02:51;;;;;;;2.10;2.00;;;19.80;51.00;;;;;;5135599;27;20471;-79
2022/10/10 08:05:19;;;;;;;1.80;1.63;;;19.90;51.00;;;;;;5128605;27;20960;-79
2022/10/10 08:07:47;;;;;;;2.20;2.07;;;20.00;50.90;;;;;;5130365;27;20452;-80
2022/10/10 08:10:15;;;;;;;2.10;2.00;;;20.10;50.60;;;;;;5141003;27;20435;-80
2022/10/10 08:12:43;;;;;;;4.00;1.67;;;20.40;50.90;;;;;;5132424;27;20463;-80
2022/10/10 08:15:11;;;;;;;1.90;1.80;;;20.50;50.70;;;;;;5139550;27;20446;-80
2022/10/10 08:17:39;;;;;;;5.80;1.70;;;20.60;50.50;;;;;;5142283;27;20469;-79
2022/10/10 08:20:09;;;;;;;2.10;1.90;;;20.80;50.60;;;;;;5153884;27;20427;-84
2022/10/10 08:22:37;;;;;;;1.80;1.70;;;21.10;50.60;;;;;;5154317;27;20458;-85
2022/10/10 08:25:06;;;;;;;2.10;2.00;;;21.30;50.40;;;;;;5152133;27;20451;-79
2022/10/10 08:27:34;;;;;;;3.00;1.87;;;21.50;50.30;;;;;;5144894;27;20555;-80
2022/10/10 08:30:02;;;;;;;1.97;1.87;;;21.70;50.40;;;;;;5143606;27;20455;-84
2022/10/10 08:32:30;;;;;;;1.90;1.80;;;21.90;50.30;;;;;;5149183;27;20467;-85
2022/10/10 08:34:58;;;;;;;3.10;1.87;;;22.10;50.20;;;;;;5154332;27;20435;-83
2022/10/10 08:37:27;;;;;;;1.97;1.87;;;22.30;50.30;;;;;;5148165;27;20465;-82
2022/10/10 08:40:03;;;;;;;2.17;1.97;;;22.30;50.10;;;;;;5139004;27;20413;-87
2022/10/10 08:42:32;;;;;;;2.73;1.70;;;22.40;50.30;;;;;;5151029;27;20467;-82
2022/10/10 08:45:02;;;;;;;3.43;2.17;;;22.60;50.30;;;;;;5146252;27;20447;-80
2022/10/10 08:47:34;;;;;;;3.00;1.87;;;22.70;50.50;;;;;;5139881;27;20470;-82
2022/10/10 08:50:04;;;;;;;1.90;1.80;;;22.90;50.30;;;;;;5149771;27;20435;-80
2022/10/10 08:52:37;;;;;;;2.60;1.67;;;23.10;50.40;;;;;;5148936;27;20449;-83
2022/10/10 08:55:07;;;;;;;3.23;2.20;;;23.30;49.90;;;;;;5150117;27;20525;-81
2022/10/10 08:57:39;;;;;;;2.23;1.93;;;23.40;49.80;;;;;;5146723;27;20438;-81
2022/10/10 09:00:12;;;;;;;2.50;2.30;;;23.70;49.50;;;;;;5133691;27;20443;-79
2022/10/10 09:02:41;;;;;;;2.30;2.13;;;23.80;49.20;;;;;;5105615;28;20453;-79
2022/10/10 09:05:24;;;;;;;4.10;2.23;;;24.00;49.10;;;;;;5110739;28;20471;-80
2022/10/10 09:08:20;;;;;;;4.40;2.30;;;24.20;48.80;;;;;;5109105;28;20440;-79
2022/10/10 09:10:55;;;;;;;1.87;1.77;;;24.40;48.50;;;;;;5109493;28;20440;-80
2022/10/10 09:13:31;;;;;;;2.10;1.90;;;24.50;48.20;;;;;;5121073;28;20421;-81
2022/10/10 09:16:00;;;;;;;6.77;2.13;;;24.70;48.10;;;;;;5107848;28;20425;-79
2022/10/10 09:18:41;;;;;;;5.20;2.20;;;24.80;47.90;;;;;;5114750;28;20468;-79
2022/10/10 09:21:15;;;;;;;2.23;2.13;;;24.90;47.50;;;;;;5109152;28;20479;-79
2022/10/10 09:23:47;;;;;;;2.60;2.03;;;25.00;47.40;;;;;;5118857;28;20447;-79
2022/10/10 09:26:16;;;;;;;6.53;1.80;;;25.10;47.30;;;;;;5110136;28;20525;-80
2022/10/10 09:28:45;;;;;;;6.60;2.03;;;25.30;47.30;;;;;;5120692;28;20415;-80
2022/10/10 09:31:15;;;;;;;2.37;2.17;;;25.40;47.00;;;;;;5120409;28;20439;-80
2022/10/10 09:33:45;;;;;;;2.23;2.13;;;25.60;47.00;;;;;;5108981;28;20453;-80
2022/10/10 09:36:14;;;;;;;2.13;1.93;;;25.70;46.60;;;;;;5121688;28;20410;-81
2022/10/10 09:38:47;;;;;;;2.27;2.07;;;25.90;46.40;;;;;;5119903;28;20438;-81
2022/10/10 09:41:16;;;;;;;2.37;2.10;;;26.00;46.20;;;;;;5117397;28;20459;-80
2022/10/10 09:43:44;;;;;;;1.80;1.70;;;26.10;46.00;;;;;;5122182;28;20422;-79
2022/10/10 09:46:12;;;;;;;3.20;2.20;;;26.20;45.80;;;;;;5108850;28;20427;-79
2022/10/10 09:48:41;;;;;;;2.30;2.10;;;26.30;45.90;;;;;;5105533;28;20471;-79
2022/10/10 09:51:13;;;;;;;4.73;2.30;;;26.40;45.70;;;;;;5117699;28;20463;-79
2022/10/10 09:53:41;;;;;;;2.37;2.23;;;26.50;45.40;;;;;;5118939;28;20451;-79
2022/10/10 09:56:15;;;;;;;4.70;2.60;;;26.60;45.30;;;;;;5114851;28;20481;-77
2022/10/10 09:58:44;;;;;;;2.83;2.40;;;26.70;45.10;;;;;;5115099;28;20463;-78
2022/10/10 10:01:13;;;;;;;3.00;2.70;;;26.80;45.00;;;;;;5113823;28;20534;-78
2022/10/10 10:03:41;;;;;;;6.80;3.00;;;27.00;44.90;;;;;;5114233;28;20458;-80
2022/10/10 10:06:12;;;;;;;7.47;3.30;;;27.00;44.40;;;;;;5117414;28;20532;-79
2022/10/10 10:08:40;;;;;;;15.20;4.10;;;26.90;45.20;;;;;;5118970;28;20418;-82
2022/10/10 10:11:22;;;;;;;12.73;3.90;;;27.00;45.40;;;;;;5111551;28;20472;-78
2022/10/10 10:13:54;;;;;;;15.50;3.90;;;27.10;45.50;;;;;;5116287;28;20447;-78
2022/10/10 10:16:29;;;;;;;11.27;4.20;;;27.20;45.00;;;;;;5107893;28;20426;-79
2022/10/10 10:18:57;;;;;;;9.30;4.43;;;27.30;44.70;;;;;;5113287;28;20445;-78
2022/10/10 10:21:25;;;;;;;8.03;4.00;;;27.40;44.60;;;;;;5115700;28;20449;-78
2022/10/10 10:23:55;;;;;;;9.83;4.30;;;27.50;44.40;;;;;;5102923;28;20427;-78
2022/10/10 10:26:27;;;;;;;10.90;4.73;;;27.50;44.30;;;;;;5116775;28;20431;-78
2022/10/10 10:28:56;;;;;;;6.20;3.90;;;27.60;44.30;;;;;;5114875;28;20451;-78
2022/10/10 10:31:49;;;;;;;4.60;3.93;;;27.70;44.10;;;;;;5115600;28;20463;-78
2022/10/10 10:34:29;;;;;;;8.03;3.83;;;27.70;43.80;;;;;;5108178;28;20518;-80
2022/10/10 10:37:00;;;;;;;6.40;3.80;;;27.80;43.80;;;;;;5106299;28;20418;-78
2022/10/10 10:39:34;;;;;;;9.10;3.67;;;27.80;43.50;;;;;;5108989;28;20866;-77
2022/10/10 10:42:08;;;;;;;6.73;4.67;;;27.90;43.20;;;;;;5108495;28;20471;-75
2022/10/10 10:44:39;;;;;;;6.80;4.30;;;28.00;43.40;;;;;;5116624;28;20431;-79
2022/10/10 10:47:15;;;;;;;8.50;4.10;;;28.00;43.20;;;;;;5107888;28;20419;-78
2022/10/10 10:49:45;;;;;;;7.77;4.30;;;28.00;43.30;;;;;;5114167;28;20840;-78
2022/10/10 10:52:20;;;;;;;9.17;4.20;;;28.10;42.90;;;;;;5115907;28;20419;-78
2022/10/10 10:55:00;;;;;;;6.53;3.90;;;28.20;42.80;;;;;;5113588;28;20441;-79
2022/10/10 10:57:33;;;;;;;6.50;4.00;;;28.20;42.60;;;;;;5113629;28;20476;-78
2022/10/10 11:00:20;;;;;;;6.27;3.80;;;28.30;42.70;;;;;;5109811;28;20436;-78
2022/10/10 11:03:15;;;;;;;5.97;3.83;;;28.50;42.30;;;;;;5109148;28;20452;-78
2022/10/10 11:06:06;;;;;;;11.83;4.57;;;29.00;41.70;;;;;;5109033;28;20493;-76
2022/10/10 11:08:43;;;;;;;5.97;4.43;;;29.80;40.70;;;;;;5108322;28;20448;-77
2022/10/10 11:11:23;;;;;;;4.30;3.90;;;30.20;39.40;;;;;;5110150;28;20452;-80
2022/10/10 11:13:55;;;;;;;5.23;3.67;;;30.50;39.00;;;;;;5103153;28;20460;-78
2022/10/10 11:16:24;;;;;;;4.20;3.77;;;30.70;38.60;;;;;;5108389;28;20448;-76
2022/10/10 11:19:18;;;;;;;4.03;3.70;;;31.40;37.90;;;;;;5101075;28;20518;-78
2022/10/10 11:21:48;;;;;;;10.30;4.13;;;32.20;36.60;;;;;;5110278;28;20475;-79
2022/10/10 11:24:20;;;;;;;6.93;3.83;;;33.00;35.50;;;;;;5110674;28;20530;-79
2022/10/10 11:26:50;;;;;;;7.03;3.47;;;33.40;34.10;;;;;;5105775;28;20460;-79
2022/10/10 11:29:21;;;;;;;7.20;4.03;;;33.50;33.90;;;;;;5106010;28;20459;-79
2022/10/10 11:31:51;;;;;;;3.83;3.63;;;33.90;33.40;;;;;;5113104;28;20977;-78
2022/10/10 11:34:21;;;;;;;5.10;3.57;;;33.80;33.50;;;;;;5111507;28;20466;-78
2022/10/10 11:36:49;;;;;;;6.97;3.63;;;33.90;33.40;;;;;;5116008;28;20432;-77
2022/10/10 11:39:18;;;;;;;3.30;3.00;;;34.00;33.00;;;;;;5114535;28;20981;-79
2022/10/10 11:41:49;;;;;;;4.07;3.67;;;33.80;32.90;;;;;;5113054;28;20822;-79
2022/10/10 11:44:21;;;;;;;5.13;3.20;;;33.20;33.50;;;;;;5112198;28;20459;-81
2022/10/10 11:46:50;;;;;;;4.80;3.57;;;32.50;34.60;;;;;;5110481;28;20456;-79
2022/10/10 11:49:21;;;;;;;8.67;3.20;;;32.00;35.30;;;;;;5110317;28;20833;-79
2022/10/10 11:52:03;;;;;;;5.47;3.30;;;31.40;36.20;;;;;;5114473;28;20476;-78
2022/10/10 11:54:54;;;;;;;4.80;3.90;;;31.30;36.80;;;;;;5114220;28;20463;-78
2022/10/10 11:57:27;;;;;;;4.30;3.90;;;31.00;36.80;;;;;;5105107;28;20457;-79
2022/10/10 11:59:59;;;;;;;5.13;4.13;;;31.30;37.40;;;;;;5101335;28;20479;-77
2022/10/10 12:02:30;;;;;;;6.37;4.57;;;31.80;37.00;;;;;;5097493;28;20472;-79
2022/10/10 12:04:58;;;;;;;3.90;3.50;;;32.50;35.80;;;;;;5101375;28;20539;-79
2022/10/10 12:07:27;;;;;;;4.00;3.60;;;33.10;34.70;;;;;;5110759;28;20424;-78
2022/10/10 12:09:56;;;;;;;4.23;3.70;;;33.10;34.10;;;;;;5112530;28;20505;-77
2022/10/10 12:12:25;;;;;;;4.47;4.07;;;33.30;34.00;;;;;;5114329;28;20451;-79
2022/10/10 12:14:54;;;;;;;4.10;3.80;;;33.00;34.10;;;;;;5114205;28;20435;-79
2022/10/10 12:17:25;;;;;;;4.93;3.80;;;32.60;34.50;;;;;;5113577;28;20436;-80
2022/10/10 12:19:53;;;;;;;5.43;3.60;;;32.20;35.00;;;;;;5110067;28;20463;-77
2022/10/10 12:22:22;;;;;;;4.97;4.43;;;31.90;35.70;;;;;;5114628;28;20455;-79
2022/10/10 12:25:21;;;;;;;4.97;4.40;;;31.60;36.00;;;;;;5114264;28;20447;-80
2022/10/10 12:28:04;;;;;;;7.83;4.40;;;31.10;36.70;;;;;;5111035;28;20432;-80
2022/10/10 12:30:32;;;;;;;6.70;3.70;;;30.60;37.70;;;;;;5106949;28;20440;-79
2022/10/10 12:33:01;;;;;;;5.00;4.13;;;30.20;38.40;;;;;;5105454;28;20448;-80
2022/10/10 12:35:31;;;;;;;5.00;3.90;;;29.90;39.00;;;;;;5108707;28;20474;-78
2022/10/10 12:38:30;;;;;;;6.20;4.07;;;29.60;39.50;;;;;;5105703;28;20809;-80
2022/10/10 12:41:14;;;;;;;5.23;4.70;;;29.50;39.90;;;;;;5107809;28;20554;-77
2022/10/10 12:43:48;;;;;;;6.63;4.50;;;29.20;40.20;;;;;;5112490;28;20509;-78
2022/10/10 12:46:22;;;;;;;5.53;3.90;;;29.10;40.60;;;;;;5113058;28;20812;-77
2022/10/10 12:49:16;;;;;;;4.47;4.10;;;29.00;40.70;;;;;;5113790;28;20447;-78
2022/10/10 12:51:45;;;;;;;4.50;4.10;;;28.80;41.10;;;;;;5109246;28;20464;-78
2022/10/10 12:54:22;;;;;;;6.60;3.90;;;28.50;41.40;;;;;;5112004;28;20421;-79
2022/10/10 12:56:50;;;;;;;5.10;4.10;;;28.40;41.70;;;;;;5115485;28;20462;-79
2022/10/10 12:59:20;;;;;;;4.03;3.73;;;28.10;42.10;;;;;;5112575;28;20474;-78
2022/10/10 13:01:51;;;;;;;5.67;4.00;;;28.10;42.40;;;;;;5109391;28;20471;-79